Wichita Mid Continent Airport
KICT : rendu visible

Aérodrome :











RETROUVEZ-NOUS SUR...

 
LOGIN :

S'inscrire | Disclaimer

   EN    FR    IT 

 









Légende :    VFR   VFR Marginal   IFR   IFR Intensif   IFR Très Intensif
Visi : 
Plafond : 
>= 8 km
>= 3000ft
5 à 8 km
1000 à 3000 ft
1500m à 5 km
500 à 1000 ft
800 à 1500m
200 à 500 ft
< 800m
< 200 ft
Symboles :   Orages  Brouillard  Fortes neiges  Fortes précipitations  Vent > 20 kt






- Altitude de l'aérodrome : 1333 ft
- Code IATA : ICT


KICT - Wichita Mid Continent

DERNIER METAR :
  • 210053Z 04008KT 10SM CLR M02/M09 A3053 RMK AO2 SLP358 T10221089

METARs EXPIRÉS :
  • 202353Z 04012KT 10SM FEW250 M02/M08 A3052 RMK AO2 SLP352 T10171083 10028 21017 51006
  • 202253Z 04011KT 10SM CLR 00/M08 A3051 RMK AO2 SLP349 T00001078

TAF KICT
Valide du 21 à 00h jusqu'au 22 à 00h UTC


202340Z 2100/2124 05009KT P6SM SKC
FM211100 11007KT P6SM SKC
FM211500 14013KT P6SM BKN250
FM212000 17017G22KT P6SM OVC200



MET'MAP, la Météo Aéronautique d'un coup d'oeil ! - Copyright ORBIFLY Décembre 2007 - Disclaimer

ORBIFLY MET'MAP TEAM :

Programmation & Développement : Alexandra Zaïnal
Sur une idée originale de : Baudouin d'Aumeries
Assistance à la programmation : Marc-Olivier Méhu
Soutien technique & logistique : Manuel Goepfert

Contact : metmap@orbifly.com




SOURCES & CREDITS :

   NOAA       Earth
Advisory